createdAt,value
2019-05-25T00:00:10.447Z,101310.78
2019-05-25T00:00:35.616Z,101303.64
2019-05-25T00:01:00.879Z,101313.00
2019-05-25T00:01:26.466Z,101304.48
2019-05-25T00:01:51.743Z,101305.34
2019-05-25T00:02:16.361Z,101307.71
2019-05-25T00:02:41.605Z,101308.55
2019-05-25T00:03:06.942Z,101310.78
2019-05-25T00:03:32.252Z,101303.25
2019-05-25T00:03:57.534Z,101302.77
2019-05-25T00:04:22.201Z,101309.06
2019-05-25T00:04:47.454Z,101306.35
2019-05-25T00:05:12.736Z,101303.25
2019-05-25T00:05:37.939Z,101301.90
2019-05-25T00:06:03.145Z,101307.33
2019-05-25T00:06:27.809Z,101307.33
2019-05-25T00:06:53.017Z,101309.55
2019-05-25T00:07:18.250Z,101304.61
2019-05-25T00:07:43.538Z,101305.97
2019-05-25T00:08:08.761Z,101306.94
2019-05-25T00:08:34.258Z,101305.58
2019-05-25T00:08:59.508Z,101304.70
2019-05-25T00:09:24.798Z,101305.58
2019-05-25T00:09:49.993Z,101305.20
2019-05-25T00:10:14.658Z,101305.09
2019-05-25T00:10:39.869Z,101308.30
2019-05-25T00:11:05.112Z,101313.72
2019-05-25T00:11:30.338Z,101307.91
2019-05-25T00:11:55.686Z,101307.55
2019-05-25T00:12:20.388Z,101307.42
2019-05-25T00:12:45.644Z,101306.55
2019-05-25T00:13:10.830Z,101308.39
2019-05-25T00:13:36.041Z,101308.39
2019-05-25T00:14:01.702Z,101308.39
2019-05-25T00:14:26.336Z,101310.27
2019-05-25T00:14:51.560Z,101310.63
2019-05-25T00:15:16.760Z,101308.53
2019-05-25T00:15:41.989Z,101307.55
2019-05-25T00:16:07.218Z,101306.69
2019-05-25T00:16:31.836Z,101310.36
2019-05-25T00:16:57.054Z,101307.55
2019-05-25T00:17:22.261Z,101311.23
2019-05-25T00:17:47.472Z,101308.91
2019-05-25T00:18:12.678Z,101309.88
2019-05-25T00:18:37.327Z,101307.17
2019-05-25T00:19:02.545Z,101310.75
2019-05-25T00:19:27.856Z,101312.98
2019-05-25T00:19:53.070Z,101312.98
2019-05-25T00:20:18.271Z,101306.78
2019-05-25T00:20:42.922Z,101312.59
2019-05-25T00:21:08.214Z,101302.72
2019-05-25T00:21:33.452Z,101308.14
2019-05-25T00:21:58.660Z,101312.20
2019-05-25T00:22:23.327Z,101312.69
2019-05-25T00:22:48.527Z,101307.75
2019-05-25T00:23:13.729Z,101308.23
2019-05-25T00:23:38.947Z,101309.59
2019-05-25T00:24:12.317Z,101308.76
2019-05-25T00:24:30.519Z,101307.40
2019-05-25T00:24:55.922Z,101307.02
2019-05-25T00:25:21.160Z,101308.37
2019-05-25T00:25:46.383Z,101307.89
2019-05-25T00:26:11.601Z,101305.66
2019-05-25T00:26:36.242Z,101308.76
2019-05-25T00:27:01.476Z,101306.62
2019-05-25T00:27:26.740Z,101311.56
2019-05-25T00:27:51.996Z,101312.92
2019-05-25T00:28:17.248Z,101303.53
2019-05-25T00:28:41.883Z,101307.11
2019-05-25T00:29:07.127Z,101305.27
2019-05-25T00:29:32.400Z,101304.88
2019-05-25T00:29:57.625Z,101304.88
2019-05-25T00:30:22.283Z,101307.24
2019-05-25T00:30:47.484Z,101302.30
2019-05-25T00:31:12.759Z,101305.89
2019-05-25T00:31:39.519Z,101299.11
2019-05-25T00:32:04.144Z,101307.24
2019-05-25T00:32:29.406Z,101307.24
2019-05-25T00:32:54.648Z,101303.66
2019-05-25T00:33:19.870Z,101297.75
2019-05-25T00:33:44.486Z,101296.98
2019-05-25T00:34:09.697Z,101303.27
2019-05-25T00:34:34.931Z,101301.05
2019-05-25T00:35:00.144Z,101298.81
2019-05-25T00:35:25.355Z,101299.69
2019-05-25T00:35:50.003Z,101305.11
2019-05-25T00:36:15.211Z,101305.59
2019-05-25T00:36:40.434Z,101303.38
2019-05-25T00:37:05.739Z,101299.30
2019-05-25T00:37:30.366Z,101308.31
2019-05-25T00:37:55.620Z,101305.11
2019-05-25T00:38:20.850Z,101303.38
2019-05-25T00:38:46.062Z,101307.44
2019-05-25T00:39:11.298Z,101305.73
2019-05-25T00:39:36.067Z,101310.16
2019-05-25T00:40:01.235Z,101310.28
2019-05-25T00:40:26.452Z,101312.51
2019-05-25T00:40:51.704Z,101312.99
2019-05-25T00:41:16.326Z,101312.99
2019-05-25T00:41:41.518Z,101314.34
2019-05-25T00:42:06.773Z,101313.48
2019-05-25T00:42:31.982Z,101313.48
2019-05-25T00:42:57.179Z,101315.22
2019-05-25T00:43:21.851Z,101313.48
2019-05-25T00:43:47.078Z,101312.61
2019-05-25T00:44:12.246Z,101313.48
2019-05-25T00:44:37.484Z,101317.55
2019-05-25T00:45:02.711Z,101316.19
2019-05-25T00:45:27.346Z,101317.55
2019-05-25T00:45:52.561Z,101316.67
2019-05-25T00:46:17.793Z,101317.55
2019-05-25T00:46:43.023Z,101318.03
2019-05-25T00:47:08.202Z,101318.03
2019-05-25T00:47:32.865Z,101320.26
2019-05-25T00:47:58.081Z,101315.80
2019-05-25T00:48:23.283Z,101315.80
2019-05-25T00:48:48.505Z,101317.16
2019-05-25T00:49:13.737Z,101318.91
2019-05-25T00:49:38.522Z,101310.38
2019-05-25T00:50:04.509Z,101316.19
2019-05-25T00:50:29.757Z,101317.93
2019-05-25T00:50:55.026Z,101314.84
2019-05-25T00:51:19.651Z,101320.26
2019-05-25T00:51:44.910Z,101320.26
2019-05-25T00:52:10.097Z,101322.00
2019-05-25T00:52:35.316Z,101323.84
2019-05-25T00:53:00.521Z,101322.00
2019-05-25T00:53:25.154Z,101325.69
2019-05-25T00:53:50.379Z,101322.58
2019-05-25T00:54:27.402Z,101322.10
2019-05-25T00:54:42.623Z,101325.69
2019-05-25T00:55:07.711Z,101321.23
2019-05-25T00:55:32.959Z,101322.58
2019-05-25T00:55:58.173Z,101325.30
2019-05-25T00:56:23.384Z,101324.42
2019-05-25T00:56:48.610Z,101325.78
2019-05-25T00:57:13.242Z,101320.36
2019-05-25T00:57:38.470Z,101326.27
2019-05-25T00:58:03.665Z,101324.42
2019-05-25T00:58:28.901Z,101329.84
2019-05-25T00:58:54.151Z,101325.30
2019-05-25T00:59:18.763Z,101323.55
2019-05-25T00:59:44.005Z,101328.98
2019-05-25T01:00:09.703Z,101329.84
2019-05-25T01:00:34.899Z,101326.78
2019-05-25T01:00:59.659Z,101324.55
2019-05-25T01:01:24.861Z,101330.85
2019-05-25T01:01:50.107Z,101323.20
2019-05-25T01:02:15.316Z,101332.20
2019-05-25T01:02:40.898Z,101332.69
2019-05-25T01:03:06.654Z,101331.69
2019-05-25T01:03:31.866Z,101334.40
2019-05-25T01:03:57.118Z,101323.55
2019-05-25T01:04:21.903Z,101331.34
2019-05-25T01:04:47.162Z,101328.98
2019-05-25T01:05:12.371Z,101332.30
2019-05-25T01:05:37.580Z,101329.98
2019-05-25T01:06:02.235Z,101329.98
2019-05-25T01:06:27.513Z,101335.41
2019-05-25T01:06:52.726Z,101328.23
2019-05-25T01:07:17.965Z,101327.27
2019-05-25T01:07:43.418Z,101335.41
2019-05-25T01:08:08.072Z,101334.05
2019-05-25T01:08:33.289Z,101328.63
2019-05-25T01:08:58.481Z,101329.98
2019-05-25T01:09:23.675Z,101326.01
2019-05-25T01:09:48.330Z,101329.59
2019-05-25T01:10:13.853Z,101335.89
2019-05-25T01:10:39.218Z,101328.72
2019-05-25T01:11:04.405Z,101332.30
2019-05-25T01:11:29.184Z,101328.72
2019-05-25T01:11:54.969Z,101326.49
2019-05-25T01:12:20.141Z,101328.72
2019-05-25T01:12:45.343Z,101327.84
2019-05-25T01:13:10.561Z,101331.92
2019-05-25T01:13:35.189Z,101326.10
2019-05-25T01:14:01.110Z,101334.14
2019-05-25T01:14:26.369Z,101332.79
2019-05-25T01:14:51.636Z,101330.17
2019-05-25T01:15:16.421Z,101335.59
2019-05-25T01:15:41.822Z,101335.59
2019-05-25T01:16:07.016Z,101333.75
2019-05-25T01:16:32.215Z,101330.17
2019-05-25T01:16:57.517Z,101329.82
2019-05-25T01:17:22.862Z,101327.11
2019-05-25T01:17:48.075Z,101329.82
2019-05-25T01:18:13.266Z,101332.14
2019-05-25T01:18:38.501Z,101327.11
2019-05-25T01:19:03.178Z,101330.30
2019-05-25T01:19:28.399Z,101333.50
2019-05-25T01:19:53.664Z,101335.24
2019-05-25T01:20:20.609Z,101332.53
2019-05-25T01:20:45.707Z,101332.14
2019-05-25T01:21:10.930Z,101332.14
2019-05-25T01:21:36.145Z,101333.50
2019-05-25T01:22:01.373Z,101332.14
2019-05-25T01:22:26.585Z,101333.50
2019-05-25T01:22:51.208Z,101334.86
2019-05-25T01:23:16.438Z,101335.34
2019-05-25T01:23:41.929Z,101333.11
2019-05-25T01:24:07.150Z,101333.50
2019-05-25T01:24:44.035Z,101336.21
2019-05-25T01:24:58.740Z,101336.21
2019-05-25T01:26:04.423Z,101326.98
2019-05-25T01:26:29.688Z,101333.59
2019-05-25T01:26:54.281Z,101330.02
2019-05-25T01:27:19.497Z,101338.53
2019-05-25T01:27:44.986Z,101333.59
2019-05-25T01:28:10.367Z,101334.95
2019-05-25T01:28:37.793Z,101328.66
2019-05-25T01:29:01.887Z,101331.37
2019-05-25T01:29:27.284Z,101333.24
2019-05-25T01:29:52.489Z,101327.81
2019-05-25T01:30:17.823Z,101332.23
2019-05-25T01:30:42.479Z,101336.79
2019-05-25T01:31:07.694Z,101331.98
2019-05-25T01:31:33.436Z,101329.27
2019-05-25T01:31:58.647Z,101329.27
2019-05-25T01:32:23.405Z,101328.78
2019-05-25T01:32:48.614Z,101326.56
2019-05-25T01:33:13.879Z,101324.81
2019-05-25T01:33:39.073Z,101330.62
2019-05-25T01:34:04.500Z,101328.88
2019-05-25T01:34:29.307Z,101329.75
2019-05-25T01:34:54.580Z,101330.62
2019-05-25T01:35:19.912Z,101328.40
2019-05-25T01:35:45.149Z,101327.53
2019-05-25T01:36:10.354Z,101334.31
2019-05-25T01:36:34.986Z,101330.23
2019-05-25T01:37:00.205Z,101333.83
2019-05-25T01:37:25.453Z,101330.62
2019-05-25T01:37:50.661Z,101330.62
2019-05-25T01:38:15.303Z,101334.70
2019-05-25T01:38:40.532Z,101330.62
2019-05-25T01:39:07.558Z,101340.12
2019-05-25T01:39:32.776Z,101338.77
2019-05-25T01:39:57.384Z,101336.05
2019-05-25T01:40:22.633Z,101332.47
2019-05-25T01:40:47.835Z,101330.62
2019-05-25T01:41:13.054Z,101333.34
2019-05-25T01:41:38.276Z,101333.73
2019-05-25T01:42:02.896Z,101330.62
2019-05-25T01:42:28.118Z,101334.70
2019-05-25T01:42:53.332Z,101337.80
2019-05-25T01:43:18.543Z,101331.59
2019-05-25T01:43:43.770Z,101340.12
2019-05-25T01:44:08.388Z,101332.47
2019-05-25T01:44:33.780Z,101339.15
2019-05-25T01:44:59.471Z,101338.77
2019-05-25T01:45:24.724Z,101336.05
2019-05-25T01:45:49.426Z,101338.28
2019-05-25T01:46:15.365Z,101340.98
2019-05-25T01:46:40.675Z,101336.53
2019-05-25T01:47:05.873Z,101340.12
2019-05-25T01:47:30.765Z,101335.66
2019-05-25T01:47:55.977Z,101334.31
2019-05-25T01:48:21.166Z,101328.88
2019-05-25T01:48:46.390Z,101338.37
2019-05-25T01:49:11.632Z,101337.98
2019-05-25T01:49:36.406Z,101341.08
2019-05-25T01:50:01.815Z,101335.27
2019-05-25T01:50:27.143Z,101338.50
2019-05-25T01:50:52.351Z,101337.98
2019-05-25T01:51:17.601Z,101337.14
2019-05-25T01:51:42.212Z,101342.05
2019-05-25T01:52:07.445Z,101336.62
2019-05-25T01:52:33.630Z,101334.92
2019-05-25T01:52:59.115Z,101336.62
2019-05-25T01:53:23.760Z,101338.50
2019-05-25T01:53:48.954Z,101332.20
2019-05-25T01:54:14.171Z,101334.92
2019-05-25T01:54:39.377Z,101334.44
2019-05-25T01:55:05.356Z,101337.63
2019-05-25T01:55:30.596Z,101334.05
2019-05-25T01:55:55.806Z,101335.89
2019-05-25T01:56:21.346Z,101333.17
2019-05-25T01:56:46.554Z,101341.22
2019-05-25T01:57:11.225Z,101337.63
2019-05-25T01:57:36.453Z,101340.34
2019-05-25T01:58:01.653Z,101336.76
2019-05-25T01:58:26.868Z,101338.98
2019-05-25T01:58:52.072Z,101337.24
2019-05-25T01:59:16.704Z,101343.05
2019-05-25T01:59:41.902Z,101339.56
2019-05-25T02:00:07.426Z,101344.99
2019-05-25T02:00:32.668Z,101344.02
2019-05-25T02:00:57.675Z,101338.21
2019-05-25T02:01:23.092Z,101343.15
2019-05-25T02:01:48.342Z,101344.99
2019-05-25T02:02:14.374Z,101344.02
2019-05-25T02:02:39.098Z,101344.02
2019-05-25T02:03:04.386Z,101341.31
2019-05-25T02:03:30.170Z,101344.51
2019-05-25T02:03:55.363Z,101348.96
2019-05-25T02:04:20.088Z,101344.89
2019-05-25T02:04:45.287Z,101348.58
2019-05-25T02:05:10.511Z,101347.61
2019-05-25T02:05:35.935Z,101344.02
2019-05-25T02:06:00.750Z,101346.73
2019-05-25T02:06:25.956Z,101346.73
2019-05-25T02:06:51.183Z,101345.37
2019-05-25T02:07:16.554Z,101345.77
2019-05-25T02:07:41.170Z,101347.61
2019-05-25T02:08:06.408Z,101342.66
2019-05-25T02:08:31.625Z,101341.80
2019-05-25T02:08:57.297Z,101344.02
2019-05-25T02:09:22.584Z,101344.99
2019-05-25T02:09:47.202Z,101342.28
2019-05-25T02:10:15.185Z,101344.89
2019-05-25T02:10:40.688Z,101344.99
2019-05-25T02:11:05.882Z,101344.51
2019-05-25T02:11:30.507Z,101340.92
2019-05-25T02:11:55.724Z,101347.22
2019-05-25T02:12:20.989Z,101347.70
2019-05-25T02:12:46.233Z,101351.77
2019-05-25T02:13:11.474Z,101346.83
2019-05-25T02:13:36.071Z,101343.63
2019-05-25T02:14:01.643Z,101343.25
2019-05-25T02:14:26.844Z,101343.25
2019-05-25T02:14:52.077Z,101337.83
2019-05-25T02:15:16.961Z,101349.55
2019-05-25T02:15:42.197Z,101345.47
2019-05-25T02:16:07.415Z,101345.95
2019-05-25T02:16:32.595Z,101347.70
2019-05-25T02:16:57.267Z,101340.53
2019-05-25T02:17:22.493Z,101348.19
2019-05-25T02:17:47.679Z,101345.60
2019-05-25T02:18:12.912Z,101344.12
2019-05-25T02:18:38.171Z,101348.19
2019-05-25T02:19:02.788Z,101344.60
2019-05-25T02:19:27.984Z,101344.12
2019-05-25T02:19:53.217Z,101344.12
2019-05-25T02:20:18.594Z,101350.41
2019-05-25T02:20:43.272Z,101349.06
2019-05-25T02:21:08.513Z,101347.70
2019-05-25T02:21:33.702Z,101349.06
2019-05-25T02:21:58.909Z,101347.70
2019-05-25T02:22:24.199Z,101347.70
2019-05-25T02:22:48.833Z,101343.63
2019-05-25T02:23:14.422Z,101347.70
2019-05-25T02:23:39.701Z,101346.83
2019-05-25T02:24:04.903Z,101353.13
2019-05-25T02:24:29.526Z,101346.83
2019-05-25T02:24:54.763Z,101352.25
2019-05-25T02:25:20.010Z,101350.41
2019-05-25T02:25:45.247Z,101346.73
2019-05-25T02:26:10.454Z,101353.52
2019-05-25T02:26:35.100Z,101349.06
2019-05-25T02:27:00.326Z,101351.77
2019-05-25T02:27:25.536Z,101352.16
2019-05-25T02:27:50.749Z,101354.00
2019-05-25T02:28:15.392Z,101348.96
2019-05-25T02:28:40.590Z,101348.96
2019-05-25T02:29:05.935Z,101349.45
2019-05-25T02:29:31.162Z,101346.34
2019-05-25T02:29:56.389Z,101346.34
2019-05-25T02:30:24.839Z,101343.15
2019-05-25T02:30:50.131Z,101348.96
2019-05-25T02:31:15.328Z,101346.34
2019-05-25T02:31:40.573Z,101343.63
2019-05-25T02:32:05.348Z,101342.66
2019-05-25T02:32:30.637Z,101344.51
2019-05-25T02:32:56.024Z,101343.63
2019-05-25T02:33:21.306Z,101344.12
2019-05-25T02:33:46.551Z,101346.47
2019-05-25T02:34:11.149Z,101344.60
2019-05-25T02:34:36.392Z,101346.47
2019-05-25T02:35:01.619Z,101340.53
2019-05-25T02:35:27.941Z,101347.31
2019-05-25T02:35:52.640Z,101341.41
2019-05-25T02:36:20.773Z,101343.25
2019-05-25T02:36:44.858Z,101342.41
2019-05-25T02:37:10.123Z,101343.38
2019-05-25T02:37:34.717Z,101344.60
2019-05-25T02:37:59.934Z,101345.60
2019-05-25T02:38:25.196Z,101344.25
2019-05-25T02:38:50.436Z,101348.31
2019-05-25T02:39:15.618Z,101341.15
2019-05-25T02:39:40.272Z,101343.86
2019-05-25T02:40:08.772Z,101345.60
2019-05-25T02:40:33.966Z,101341.63
2019-05-25T02:40:59.163Z,101344.25
2019-05-25T02:41:23.812Z,101342.50
2019-05-25T02:41:49.043Z,101344.25
2019-05-25T02:42:14.419Z,101348.31
2019-05-25T02:42:39.659Z,101345.60
2019-05-25T02:43:04.490Z,101344.73
2019-05-25T02:43:29.937Z,101342.50
2019-05-25T02:43:55.137Z,101342.02
2019-05-25T02:44:20.337Z,101339.79
2019-05-25T02:44:45.582Z,101338.05
2019-05-25T02:45:10.198Z,101342.50
2019-05-25T02:45:35.843Z,101339.79
2019-05-25T02:46:01.064Z,101342.89
2019-05-25T02:46:26.297Z,101348.41
2019-05-25T02:46:51.508Z,101341.63
2019-05-25T02:47:16.120Z,101341.15
2019-05-25T02:47:41.340Z,101340.76
2019-05-25T02:48:06.563Z,101353.34
2019-05-25T02:48:31.757Z,101348.02
2019-05-25T02:48:56.374Z,101346.18
2019-05-25T02:49:21.736Z,101346.57
2019-05-25T02:49:46.976Z,101344.83
2019-05-25T02:50:12.670Z,101343.95
2019-05-25T02:50:37.270Z,101342.12
2019-05-25T02:51:02.516Z,101342.98
2019-05-25T02:51:27.744Z,101347.05
2019-05-25T02:51:52.955Z,101345.70
2019-05-25T02:52:18.172Z,101345.70
2019-05-25T02:52:42.874Z,101346.09
2019-05-25T02:53:08.081Z,101344.25
2019-05-25T02:53:33.299Z,101339.41
2019-05-25T02:53:58.512Z,101338.05
2019-05-25T02:54:23.725Z,101343.47
2019-05-25T02:54:48.377Z,101346.95
2019-05-25T02:55:14.523Z,101349.28
2019-05-25T02:55:39.825Z,101344.83
2019-05-25T02:56:05.030Z,101344.83
2019-05-25T02:56:29.831Z,101345.21
2019-05-25T02:56:55.086Z,101346.18
2019-05-25T02:57:20.468Z,101346.18
2019-05-25T02:57:45.638Z,101343.12
2019-05-25T02:58:10.325Z,101348.02
2019-05-25T02:58:35.583Z,101345.31
2019-05-25T02:59:00.827Z,101349.89
2019-05-25T02:59:26.067Z,101342.60
2019-05-25T02:59:51.327Z,101347.19
2019-05-25T03:00:16.206Z,101344.47
2019-05-25T03:00:41.430Z,101348.89
2019-05-25T03:01:06.624Z,101341.77
2019-05-25T03:01:31.859Z,101345.31
2019-05-25T03:01:56.560Z,101339.05
2019-05-25T03:02:21.817Z,101348.16
2019-05-25T03:02:47.415Z,101345.83
2019-05-25T03:03:12.877Z,101344.47
2019-05-25T03:03:37.665Z,101344.47
2019-05-25T03:04:02.874Z,101348.02
2019-05-25T03:04:28.104Z,101344.95
2019-05-25T03:04:53.316Z,101342.73
2019-05-25T03:05:18.571Z,101347.19
2019-05-25T03:05:43.245Z,101346.80
2019-05-25T03:06:08.520Z,101346.80
2019-05-25T03:06:33.883Z,101352.61
2019-05-25T03:06:59.119Z,101349.02
2019-05-25T03:07:24.330Z,101349.89
2019-05-25T03:07:48.956Z,101349.89
2019-05-25T03:08:14.682Z,101353.45
2019-05-25T03:08:39.910Z,101353.45
2019-05-25T03:09:07.339Z,101349.89
2019-05-25T03:09:31.969Z,101357.03
2019-05-25T03:09:57.231Z,101352.96
2019-05-25T03:10:22.438Z,101358.03
2019-05-25T03:10:48.520Z,101353.45
2019-05-25T03:11:14.109Z,101349.50
2019-05-25T03:11:39.905Z,101357.16
2019-05-25T03:12:05.120Z,101352.61
2019-05-25T03:12:30.361Z,101353.09
2019-05-25T03:12:56.537Z,101355.31
2019-05-25T03:13:21.717Z,101357.16
2019-05-25T03:13:46.946Z,101357.64
2019-05-25T03:14:12.161Z,101355.41
2019-05-25T03:14:37.360Z,101358.61
2019-05-25T03:15:02.237Z,101362.67
2019-05-25T03:15:27.648Z,101358.61
2019-05-25T03:15:52.898Z,101365.39
2019-05-25T03:16:18.189Z,101365.00
2019-05-25T03:16:42.868Z,101365.39
2019-05-25T03:17:08.145Z,101365.00
2019-05-25T03:17:33.378Z,101359.57
2019-05-25T03:17:58.655Z,101363.64
2019-05-25T03:18:23.528Z,101368.09
2019-05-25T03:18:48.760Z,101360.45
2019-05-25T03:19:14.821Z,101365.39
2019-05-25T03:19:40.022Z,101366.35
2019-05-25T03:20:07.641Z,101366.73
2019-05-25T03:20:32.823Z,101363.16
2019-05-25T03:20:58.123Z,101367.70
2019-05-25T03:21:23.396Z,101364.64
2019-05-25T03:21:48.679Z,101364.52
2019-05-25T03:22:14.195Z,101364.12
2019-05-25T03:22:39.413Z,101368.70
2019-05-25T03:23:04.596Z,101368.31
2019-05-25T03:23:29.810Z,101368.70
2019-05-25T03:23:54.790Z,101368.70
2019-05-25T03:24:20.055Z,101372.38
2019-05-25T03:24:45.291Z,101369.19
2019-05-25T03:25:10.471Z,101368.80
2019-05-25T03:25:48.504Z,101375.09
2019-05-25T03:26:02.368Z,101371.52
2019-05-25T03:26:27.580Z,101373.35
2019-05-25T03:26:52.862Z,101373.35
2019-05-25T03:27:18.056Z,101376.45
2019-05-25T03:27:43.372Z,101372.00
2019-05-25T03:28:08.091Z,101372.00
2019-05-25T03:28:33.297Z,101372.87
2019-05-25T03:28:58.522Z,101373.84
2019-05-25T03:29:23.760Z,101372.00
2019-05-25T03:29:48.377Z,101373.84
2019-05-25T03:30:14.349Z,101370.25
2019-05-25T03:30:39.545Z,101366.19
2019-05-25T03:31:04.765Z,101372.09
2019-05-25T03:31:29.404Z,101370.25
2019-05-25T03:31:54.813Z,101372.96
2019-05-25T03:32:20.575Z,101372.96
2019-05-25T03:32:45.785Z,101368.90
2019-05-25T03:33:10.410Z,101368.90
2019-05-25T03:33:35.639Z,101368.02
2019-05-25T03:34:00.863Z,101373.45
2019-05-25T03:34:26.140Z,101368.55
2019-05-25T03:34:51.364Z,101371.12
2019-05-25T03:35:15.989Z,101369.89
2019-05-25T03:35:41.197Z,101375.67
2019-05-25T03:36:06.403Z,101373.09
2019-05-25T03:36:31.703Z,101367.19
2019-05-25T03:36:56.343Z,101364.47
2019-05-25T03:37:21.586Z,101363.95
2019-05-25T03:37:46.829Z,101373.45
2019-05-25T03:38:12.003Z,101370.86
2019-05-25T03:38:37.203Z,101366.31
2019-05-25T03:39:01.831Z,101368.02
2019-05-25T03:39:27.821Z,101368.55
2019-05-25T03:39:53.062Z,101367.67
2019-05-25T03:40:18.290Z,101366.80
2019-05-25T03:40:42.902Z,101362.25
2019-05-25T03:41:08.102Z,101361.38
2019-05-25T03:41:33.332Z,101364.56
2019-05-25T03:41:58.533Z,101362.73
2019-05-25T03:42:23.761Z,101371.25
2019-05-25T03:42:48.394Z,101365.83
2019-05-25T03:43:13.756Z,101371.25
2019-05-25T03:43:38.945Z,101368.55
2019-05-25T03:44:04.132Z,101368.55
2019-05-25T03:44:29.346Z,101370.73
2019-05-25T03:44:53.974Z,101365.83
2019-05-25T03:45:19.181Z,101372.09
2019-05-25T03:45:44.381Z,101365.31
2019-05-25T03:46:09.639Z,101364.47
2019-05-25T03:46:34.247Z,101368.55
2019-05-25T03:46:59.496Z,101367.19
2019-05-25T03:47:24.722Z,101370.73
2019-05-25T03:47:49.926Z,101368.90
2019-05-25T03:48:15.139Z,101367.55
2019-05-25T03:48:39.756Z,101363.95
2019-05-25T03:49:04.950Z,101364.83
2019-05-25T03:49:30.142Z,101362.59
2019-05-25T03:49:55.385Z,101362.13
2019-05-25T03:50:20.274Z,101368.41
2019-05-25T03:50:45.516Z,101370.25
2019-05-25T03:51:10.767Z,101362.59
2019-05-25T03:51:35.934Z,101367.55
2019-05-25T03:52:01.156Z,101371.12
2019-05-25T03:52:25.906Z,101363.95
2019-05-25T03:52:51.108Z,101371.12
2019-05-25T03:53:16.332Z,101366.58
2019-05-25T03:53:41.562Z,101366.67
2019-05-25T03:54:06.180Z,101369.37
2019-05-25T03:54:31.384Z,101368.02
2019-05-25T03:54:56.619Z,101372.96
2019-05-25T03:55:21.844Z,101368.90
2019-05-25T03:55:47.056Z,101371.61
2019-05-25T03:56:11.702Z,101369.89
2019-05-25T03:56:36.911Z,101372.96
2019-05-25T03:57:02.374Z,101369.37
2019-05-25T03:57:27.635Z,101373.97
2019-05-25T03:57:52.278Z,101371.25
2019-05-25T03:58:17.501Z,101371.25
2019-05-25T03:58:42.788Z,101366.80
2019-05-25T03:59:08.026Z,101375.32
2019-05-25T03:59:33.257Z,101375.67
2019-05-25T03:59:57.878Z,101373.45
2019-05-25T04:00:37.142Z,101375.32
2019-05-25T04:01:02.548Z,101376.67
2019-05-25T04:01:27.852Z,101371.73
2019-05-25T04:01:52.521Z,101379.38
2019-05-25T04:02:17.781Z,101382.09
2019-05-25T04:02:43.101Z,101383.94
2019-05-25T04:03:08.389Z,101379.00
2019-05-25T04:03:33.566Z,101378.61
2019-05-25T04:03:58.244Z,101384.91
2019-05-25T04:04:23.450Z,101381.70
2019-05-25T04:04:48.665Z,101382.67
2019-05-25T04:05:14.990Z,101383.06
2019-05-25T04:05:39.654Z,101385.77
2019-05-25T04:06:04.899Z,101383.55
2019-05-25T04:06:30.116Z,101382.19
2019-05-25T04:06:55.313Z,101375.89
2019-05-25T04:07:20.524Z,101373.19
2019-05-25T04:07:45.195Z,101378.61
2019-05-25T04:08:10.403Z,101378.61
2019-05-25T04:08:35.674Z,101376.86
2019-05-25T04:09:00.932Z,101375.89
2019-05-25T04:09:25.537Z,101374.54
2019-05-25T04:09:50.732Z,101376.77
2019-05-25T04:10:15.972Z,101373.66
2019-05-25T04:10:41.212Z,101377.73
2019-05-25T04:11:06.496Z,101373.58
2019-05-25T04:11:31.118Z,101378.12
2019-05-25T04:11:56.314Z,101384.42
2019-05-25T04:12:21.508Z,101382.67
2019-05-25T04:12:46.764Z,101376.77
2019-05-25T04:13:11.385Z,101375.89
2019-05-25T04:13:36.583Z,101379.00
2019-05-25T04:14:01.800Z,101381.31
2019-05-25T04:14:27.026Z,101378.61
2019-05-25T04:14:52.253Z,101380.35
2019-05-25T04:15:16.847Z,101381.31
2019-05-25T04:15:42.095Z,101379.00
2019-05-25T04:16:07.289Z,101378.61
2019-05-25T04:16:32.494Z,101384.42
2019-05-25T04:16:57.224Z,101385.77
2019-05-25T04:17:22.415Z,101382.19
2019-05-25T04:17:47.675Z,101383.06
2019-05-25T04:18:12.875Z,101385.77
2019-05-25T04:18:38.086Z,101381.22
2019-05-25T04:19:02.723Z,101379.00
2019-05-25T04:19:27.962Z,101377.64
2019-05-25T04:19:53.167Z,101385.29
2019-05-25T04:20:18.392Z,101379.87
2019-05-25T04:20:43.640Z,101383.94
2019-05-25T04:21:08.341Z,101380.35
2019-05-25T04:21:33.544Z,101379.96
2019-05-25T04:21:58.725Z,101383.55
2019-05-25T04:22:23.950Z,101388.48
2019-05-25T04:22:49.181Z,101386.25
2019-05-25T04:23:14.297Z,101384.42
2019-05-25T04:23:39.499Z,101388.48
2019-05-25T04:24:05.394Z,101389.84
2019-05-25T04:24:30.660Z,101386.25
2019-05-25T04:24:55.300Z,101387.52
2019-05-25T04:25:20.536Z,101384.91
2019-05-25T04:25:45.759Z,101382.19
2019-05-25T04:26:21.928Z,101389.84
2019-05-25T04:26:37.331Z,101387.61
2019-05-25T04:27:02.815Z,101388.48
2019-05-25T04:27:28.029Z,101387.13
2019-05-25T04:27:53.323Z,101381.70
2019-05-25T04:28:18.623Z,101388.48
2019-05-25T04:28:43.253Z,101383.55
2019-05-25T04:29:08.451Z,101387.61
2019-05-25T04:29:33.671Z,101385.77
2019-05-25T04:29:58.954Z,101383.06
2019-05-25T04:30:24.193Z,101387.61
2019-05-25T04:30:48.833Z,101384.03
2019-05-25T04:31:14.858Z,101385.77
2019-05-25T04:31:40.063Z,101385.77
2019-05-25T04:32:05.277Z,101391.20
2019-05-25T04:32:29.889Z,101384.42
2019-05-25T04:32:55.145Z,101389.45
2019-05-25T04:33:20.392Z,101388.09
2019-05-25T04:33:45.622Z,101389.84
2019-05-25T04:34:10.220Z,101392.16
2019-05-25T04:34:35.446Z,101389.84
2019-05-25T04:35:00.775Z,101386.73
2019-05-25T04:35:25.986Z,101391.20
2019-05-25T04:35:51.192Z,101384.91
2019-05-25T04:36:15.819Z,101388.97
2019-05-25T04:36:41.068Z,101389.84
2019-05-25T04:37:06.258Z,101392.16
2019-05-25T04:37:31.475Z,101392.55
2019-05-25T04:37:56.703Z,101393.52
2019-05-25T04:38:21.325Z,101388.97
2019-05-25T04:38:46.553Z,101392.55
2019-05-25T04:39:11.744Z,101392.16
2019-05-25T04:39:36.926Z,101393.03
2019-05-25T04:40:02.159Z,101395.74
2019-05-25T04:40:26.791Z,101394.88
2019-05-25T04:40:51.980Z,101395.27
2019-05-25T04:41:17.185Z,101395.74
2019-05-25T04:41:42.460Z,101393.91
2019-05-25T04:42:07.669Z,101388.97
2019-05-25T04:42:32.276Z,101395.27
2019-05-25T04:42:57.504Z,101397.01
2019-05-25T04:43:22.729Z,101395.65
2019-05-25T04:43:47.930Z,101400.20
2019-05-25T04:44:13.126Z,101396.48
2019-05-25T04:44:37.771Z,101395.27
2019-05-25T04:45:02.958Z,101398.36
2019-05-25T04:45:28.165Z,101396.48
2019-05-25T04:45:53.496Z,101396.48
2019-05-25T04:46:21.557Z,101397.01
2019-05-25T04:46:45.086Z,101397.01
2019-05-25T04:47:25.885Z,101398.36
2019-05-25T04:47:37.286Z,101397.01
2019-05-25T04:48:02.517Z,101396.62
2019-05-25T04:48:27.164Z,101399.72